Time;durP1;ratioP1;P1;durP2;ratioP2;P2;SDS_P1;SDS_P2;PMS_P1;PMS_P2;Temp;Humidity;BMP_temperature;BMP_pressure;BME280_temperature;BME280_humidity;BME280_pressure;Samples;Min_cycle;Max_cycle;Signal;HPM_P1;HPM_P2
2024/03/16 00:01:50;;;;;;;35.70;4.50;;;;;;;10.13;100.00;100966.44;5104564;28;20053;-77
2024/03/16 00:04:16;;;;;;;26.60;4.03;;;;;;;10.15;100.00;100968.97;5106097;28;20032;-77
2024/03/16 00:06:41;;;;;;;36.33;4.53;;;;;;;10.17;100.00;100959.34;5109324;28;20039;-77
2024/03/16 00:09:07;;;;;;;37.72;4.80;;;;;;;10.13;100.00;100966.44;5112697;28;20103;-78
2024/03/16 00:11:32;;;;;;;30.25;3.90;;;;;;;10.18;100.00;100968.88;5115313;28;20058;-77
2024/03/16 00:14:00;;;;;;;38.25;5.20;;;;;;;10.19;100.00;100976.69;5115674;28;20061;-77
2024/03/16 00:16:25;;;;;;;33.75;5.88;;;;;;;10.16;100.00;100976.78;5115658;28;20062;-77
2024/03/16 00:18:51;;;;;;;40.10;5.57;;;;;;;10.12;100.00;100980.44;5115684;28;20040;-77
2024/03/16 00:21:16;;;;;;;45.28;6.30;;;;;;;10.11;100.00;100989.16;5097215;28;20027;-77
2024/03/16 00:23:43;;;;;;;38.40;5.95;;;;;;;10.12;100.00;100985.66;5117230;28;20067;-77
2024/03/16 00:26:08;;;;;;;32.40;5.72;;;;;;;10.14;100.00;100998.69;5116640;28;20058;-77
2024/03/16 00:28:33;;;;;;;35.00;5.05;;;;;;;10.12;100.00;101005.75;5116027;28;20043;-76
2024/03/16 00:30:59;;;;;;;38.65;5.85;;;;;;;10.04;100.00;101006.03;5098434;28;20328;-77
2024/03/16 00:33:24;;;;;;;34.13;4.38;;;;;;;9.93;100.00;101021.22;5097554;28;20346;-77
2024/03/16 00:35:50;;;;;;;20.13;3.28;;;;;;;9.84;100.00;101016.31;5117084;28;20077;-77
2024/03/16 00:38:16;;;;;;;23.33;4.13;;;;;;;9.78;100.00;101020.84;5116749;28;20327;-77
2024/03/16 00:40:42;;;;;;;20.63;4.10;;;;;;;9.82;100.00;101036.47;5116469;28;20455;-77
2024/03/16 00:43:07;;;;;;;16.02;2.83;;;;;;;9.71;100.00;101035.03;5116006;28;20286;-77
2024/03/16 00:45:32;;;;;;;15.30;2.70;;;;;;;9.66;100.00;101039.59;5115420;28;20337;-77
2024/03/16 00:47:57;;;;;;;18.60;2.78;;;;;;;9.65;100.00;101052.72;5115625;28;20265;-76
2024/03/16 00:50:23;;;;;;;11.05;2.22;;;;;;;9.67;100.00;101049.13;5115323;28;20277;-77
2024/03/16 00:52:48;;;;;;;15.05;2.50;;;;;;;9.64;100.00;101053.63;5115788;28;20032;-77
2024/03/16 00:55:13;;;;;;;5.22;2.78;;;;;;;9.58;100.00;101060.75;5115106;28;20035;-77
2024/03/16 00:57:39;;;;;;;10.82;2.50;;;;;;;9.52;100.00;101066.19;5116061;28;20289;-77
2024/03/16 01:00:08;;;;;;;7.65;2.10;;;;;;;9.44;100.00;101070.84;5116681;28;20251;-77
2024/03/16 01:02:33;;;;;;;;;;;;;;;9.37;100.00;101079.78;5097562;28;20031;-77
2024/03/16 01:04:59;;;;;;;5.13;1.70;;;;;;;9.39;100.00;101097.09;5116603;28;19950;-77
2024/03/16 01:07:24;;;;;;;6.85;2.10;;;;;;;9.19;100.00;101081.22;5116660;28;20039;-76
2024/03/16 01:09:49;;;;;;;6.32;1.90;;;;;;;9.25;100.00;101095.84;5116794;28;20046;-77
2024/03/16 01:12:15;;;;;;;14.30;2.00;;;;;;;9.13;100.00;101107.50;5116022;28;20311;-77
2024/03/16 01:14:40;;;;;;;8.70;2.20;;;;;;;9.13;100.00;101108.38;5116685;28;20348;-77
2024/03/16 01:17:06;;;;;;;10.13;2.67;;;;;;;9.09;100.00;101111.97;5116476;28;20047;-77
2024/03/16 01:19:31;;;;;;;3.67;2.25;;;;;;;9.16;100.00;101110.88;5116101;28;20046;-77
2024/03/16 01:21:57;;;;;;;7.53;3.15;;;;;;;9.09;100.00;101126.78;5116488;28;20031;-77
2024/03/16 01:24:22;;;;;;;11.13;2.58;;;;;;;8.99;100.00;101121.00;5116192;28;20064;-77
2024/03/16 01:26:47;;;;;;;8.10;2.70;;;;;;;9.02;100.00;101133.94;5116726;28;20031;-77
2024/03/16 01:29:15;;;;;;;7.22;1.77;;;;;;;8.89;100.00;101122.16;5115901;28;20337;-77
2024/03/16 01:31:41;;;;;;;6.47;2.35;;;;;;;8.92;100.00;101137.75;5116854;28;20399;-77
2024/03/16 01:34:06;;;;;;;7.88;2.00;;;;;;;8.97;100.00;101141.94;5116195;28;20039;-77
2024/03/16 01:36:32;;;;;;;7.97;2.75;;;;;;;8.89;100.00;101137.84;5115748;28;20054;-77
2024/03/16 01:38:57;;;;;;;8.70;2.22;;;;;;;8.90;100.00;101136.94;5116400;28;20032;-77
2024/03/16 01:41:23;;;;;;;6.03;2.08;;;;;;;8.95;100.00;101148.97;5115628;28;20265;-77
2024/03/16 01:43:48;;;;;;;5.53;2.45;;;;;;;8.86;100.00;101138.78;5116108;28;20023;-77
2024/03/16 01:46:15;;;;;;;8.30;3.33;;;;;;;8.80;100.00;101147.66;5097286;28;20400;-77
2024/03/16 01:48:42;;;;;;;11.68;2.67;;;;;;;8.86;100.00;101150.97;5116124;28;20024;-77
2024/03/16 01:51:07;;;;;;;9.23;3.10;;;;;;;8.75;100.00;101152.16;5115713;28;20040;-77
2024/03/16 01:53:33;;;;;;;8.35;2.95;;;;;;;8.70;100.00;101150.56;5115280;28;20027;-77
2024/03/16 01:55:58;;;;;;;10.52;3.00;;;;;;;8.71;100.00;101160.09;5115648;28;20039;-77
2024/03/16 01:58:24;;;;;;;14.32;3.60;;;;;;;8.69;100.00;101167.97;5115806;28;20238;-77
2024/03/16 02:00:49;;;;;;;5.38;2.85;;;;;;;8.62;100.00;101161.19;5115909;28;20096;-77
2024/03/16 02:03:15;;;;;;;10.68;3.33;;;;;;;8.64;100.00;101172.44;5115352;28;20055;-77
2024/03/16 02:05:41;;;;;;;8.77;3.03;;;;;;;8.74;100.00;101171.31;5116014;28;20046;-77
2024/03/16 02:08:07;;;;;;;11.07;3.13;;;;;;;8.72;100.00;101172.28;5115402;28;20066;-77
2024/03/16 02:10:33;;;;;;;7.65;2.97;;;;;;;8.58;100.00;101186.53;5115167;28;20027;-77
2024/03/16 02:12:58;;;;;;;9.57;3.00;;;;;;;8.38;100.00;101186.19;5115087;28;20035;-76
2024/03/16 02:15:24;;;;;;;10.55;2.90;;;;;;;8.38;100.00;101197.47;5114866;28;20030;-77
2024/03/16 02:17:50;;;;;;;13.77;2.78;;;;;;;8.42;100.00;101193.94;5096969;28;20104;-77
2024/03/16 02:20:15;;;;;;;10.20;2.50;;;;;;;8.35;100.00;101196.69;5114785;28;20038;-77
2024/03/16 02:22:42;;;;;;;5.95;1.80;;;;;;;8.40;100.00;101200.91;5115518;28;20035;-77
2024/03/16 02:25:09;;;;;;;8.70;1.50;;;;;;;8.45;100.00;101200.81;5115161;28;20031;-77
2024/03/16 02:27:34;;;;;;;7.43;1.13;;;;;;;8.42;100.00;101207.00;5115018;28;20032;-77
2024/03/16 02:29:59;;;;;;;8.25;1.23;;;;;;;8.47;100.00;101198.16;5115314;28;20306;-77
2024/03/16 02:32:24;;;;;;;4.90;1.17;;;;;;;8.41;100.00;101207.00;5115189;28;20100;-77
2024/03/16 02:34:50;;;;;;;8.23;1.15;;;;;;;8.40;100.00;101203.53;5115214;28;20246;-77
2024/03/16 02:37:16;;;;;;;7.05;1.38;;;;;;;8.32;100.00;101217.66;5115051;28;20306;-78
2024/03/16 02:39:41;;;;;;;7.30;1.30;;;;;;;8.21;100.00;101228.38;5115364;28;20267;-77
2024/03/16 02:42:06;;;;;;;10.13;1.20;;;;;;;8.19;100.00;101228.41;5114964;28;20080;-77
2024/03/16 02:44:32;;;;;;;6.43;0.85;;;;;;;8.25;100.00;101238.66;5096546;28;20149;-77
2024/03/16 02:46:58;;;;;;;4.53;1.23;;;;;;;8.29;100.00;101239.44;5114935;28;20095;-77
2024/03/16 02:49:25;;;;;;;4.03;1.08;;;;;;;8.31;100.00;101242.88;5114865;28;20035;-77
2024/03/16 02:51:51;;;;;;;6.85;1.10;;;;;;;8.23;100.00;101244.84;5115091;28;20027;-77
2024/03/16 02:54:17;;;;;;;2.13;0.60;;;;;;;8.23;100.00;101253.50;5114748;28;20102;-77
2024/03/16 02:56:43;;;;;;;4.03;0.77;;;;;;;8.30;100.00;101251.63;5114797;28;20327;-77
2024/03/16 02:59:09;;;;;;;5.35;0.73;;;;;;;8.27;100.00;101257.75;5096552;28;20023;-77
2024/03/16 03:01:35;;;;;;;4.70;0.70;;;;;;;8.22;100.00;101258.75;5114378;28;20042;-77
2024/03/16 03:04:01;;;;;;;12.80;1.20;;;;;;;8.20;100.00;101268.38;5114405;28;20331;-77
2024/03/16 03:06:26;;;;;;;5.45;0.95;;;;;;;8.15;100.00;101271.13;5114551;28;20352;-77
2024/03/16 03:08:51;;;;;;;4.88;1.00;;;;;;;8.12;100.00;101271.19;5115381;28;20094;-77
2024/03/16 03:11:17;;;;;;;3.33;1.20;;;;;;;8.07;100.00;101280.88;5114711;28;20180;-77
2024/03/16 03:13:43;;;;;;;5.80;1.30;;;;;;;8.06;100.00;101280.00;5096650;28;20023;-77
2024/03/16 03:16:09;;;;;;;8.73;0.95;;;;;;;8.08;100.00;101280.84;5114684;28;20132;-77
2024/03/16 03:18:34;;;;;;;8.32;1.10;;;;;;;8.14;100.00;101286.81;5114381;28;20086;-77
2024/03/16 03:21:00;;;;;;;5.15;0.80;;;;;;;8.10;100.00;101301.66;5114818;28;20032;-77
2024/03/16 03:23:25;;;;;;;11.10;1.17;;;;;;;8.02;100.00;101303.56;5114172;28;20321;-77
2024/03/16 03:25:50;;;;;;;3.45;0.85;;;;;;;8.13;100.00;101309.44;5096200;28;20211;-77
2024/03/16 03:28:15;;;;;;;6.22;0.90;;;;;;;8.01;100.00;101310.56;5114158;28;20334;-77
2024/03/16 03:30:42;;;;;;;3.13;0.70;;;;;;;8.05;100.00;101313.97;5114613;28;20031;-77
2024/03/16 03:33:08;;;;;;;2.63;0.50;;;;;;;8.10;100.00;101309.50;5114749;28;20096;-77
2024/03/16 03:35:35;;;;;;;3.33;0.40;;;;;;;8.07;100.00;101306.94;5114263;28;20077;-77
2024/03/16 03:38:02;;;;;;;5.90;1.40;;;;;;;8.05;100.00;101316.56;5114885;28;20180;-77
2024/03/16 03:40:28;;;;;;;6.10;0.82;;;;;;;7.99;100.00;101314.09;5114314;28;20066;-77
2024/03/16 03:42:55;;;;;;;1.52;0.60;;;;;;;8.00;100.00;101326.25;5114342;28;20036;-77
2024/03/16 03:48:25;;;;;;;9.18;1.15;;;;;;;7.97;100.00;101344.59;5114831;28;20384;-77
2024/03/16 03:50:50;;;;;;;7.32;1.10;;;;;;;7.89;100.00;101352.53;5114714;28;20041;-77
2024/03/16 03:53:17;;;;;;;10.05;1.67;;;;;;;7.90;100.00;101354.28;5114328;28;20050;-77
2024/03/16 03:55:42;;;;;;;11.68;1.05;;;;;;;7.93;100.00;101362.03;5114583;28;20055;-77
2024/03/16 03:58:08;;;;;;;6.85;1.48;;;;;;;7.87;100.00;101364.75;5114314;28;20354;-77
2024/03/16 04:00:33;;;;;;;3.88;0.85;;;;;;;7.76;100.00;101370.19;5114280;28;20045;-77
2024/03/16 04:03:06;;;;;;;5.85;1.05;;;;;;;7.77;100.00;101371.09;5096147;28;20038;-77
2024/03/16 04:05:33;;;;;;;8.05;1.05;;;;;;;7.84;100.00;101378.75;5095866;28;20024;-77
2024/03/16 04:07:58;;;;;;;3.45;0.73;;;;;;;7.85;100.00;101377.84;5114343;28;20027;-77
2024/03/16 04:10:24;;;;;;;6.18;0.98;;;;;;;7.86;100.00;101383.94;5114333;28;20278;-77
2024/03/16 04:12:49;;;;;;;3.65;0.65;;;;;;;7.94;100.00;101394.19;5114419;28;20031;-77
2024/03/16 04:15:15;;;;;;;5.90;0.88;;;;;;;7.79;100.00;101401.44;5113993;28;20326;-77
2024/03/16 04:17:40;;;;;;;10.18;1.30;;;;;;;7.75;100.00;101401.50;5118416;28;20043;-77
2024/03/16 04:20:15;;;;;;;11.80;1.65;;;;;;;7.67;100.00;101415.56;5117984;28;20087;-77
2024/03/16 04:22:41;;;;;;;10.27;1.15;;;;;;;7.79;100.00;101411.88;5118137;28;20248;-77
2024/03/16 04:25:09;;;;;;;9.75;1.20;;;;;;;7.74;100.00;101418.06;5118002;28;20358;-77
2024/03/16 04:27:35;;;;;;;7.05;0.85;;;;;;;7.72;100.00;101414.63;5117422;28;20063;-78
2024/03/16 04:30:01;;;;;;;5.30;0.90;;;;;;;7.78;100.00;101420.56;5117698;28;20087;-77
2024/03/16 04:32:29;;;;;;;8.90;1.30;;;;;;;7.77;100.00;101431.91;5118149;28;20097;-77
2024/03/16 04:34:54;;;;;;;11.43;1.95;;;;;;;7.78;100.00;101428.38;5117787;28;20027;-77
2024/03/16 04:37:20;;;;;;;9.98;1.58;;;;;;;7.76;100.00;101434.53;5098702;28;20034;-77
2024/03/16 04:39:45;;;;;;;8.25;1.45;;;;;;;7.75;100.00;101431.06;5117233;28;20091;-77
2024/03/16 04:42:11;;;;;;;8.98;1.52;;;;;;;7.78;100.00;101446.63;5117299;28;20036;-77
2024/03/16 04:44:37;;;;;;;8.00;1.20;;;;;;;7.81;100.00;101446.59;5117893;28;20094;-77
2024/03/16 04:47:03;;;;;;;5.82;0.88;;;;;;;7.83;100.00;101455.25;5117528;28;20039;-77
2024/03/16 04:49:29;;;;;;;7.22;1.10;;;;;;;7.80;100.00;101468.31;5117004;28;20124;-76
2024/03/16 04:51:55;;;;;;;3.45;0.88;;;;;;;7.84;100.00;101456.09;5117079;28;20050;-76
2024/03/16 04:54:20;;;;;;;9.80;0.55;;;;;;;7.87;100.00;101462.09;5116675;28;20180;-76
2024/03/16 04:56:45;;;;;;;3.45;0.63;;;;;;;7.76;100.00;101464.06;5116845;28;20219;-77
2024/03/16 04:59:11;;;;;;;2.25;0.80;;;;;;;7.79;100.00;101481.41;5116873;28;20038;-76
2024/03/16 05:01:36;;;;;;;8.02;0.93;;;;;;;7.74;100.00;101491.91;5116798;28;20068;-77
2024/03/16 05:04:03;;;;;;;5.20;0.65;;;;;;;7.71;100.00;101499.78;5117018;28;20027;-77
2024/03/16 05:06:30;;;;;;;5.65;1.33;;;;;;;7.63;100.00;101505.16;5117098;28;20047;-77
2024/03/16 05:08:56;;;;;;;6.10;1.25;;;;;;;7.62;100.00;101513.88;5117143;28;20216;-77
2024/03/16 05:11:21;;;;;;;3.83;0.80;;;;;;;7.53;100.00;101520.97;5116516;28;20035;-77
2024/03/16 05:13:47;;;;;;;6.22;1.15;;;;;;;7.51;100.00;101528.81;5116874;28;20053;-77
2024/03/16 05:16:12;;;;;;;5.35;0.98;;;;;;;7.46;100.00;101541.94;5116239;28;20342;-77
2024/03/16 05:18:37;;;;;;;9.27;1.23;;;;;;;7.38;100.00;101538.59;5098294;28;20347;-77
2024/03/16 05:21:04;;;;;;;8.63;1.35;;;;;;;7.34;100.00;101541.28;5116380;28;20035;-77
2024/03/16 05:23:30;;;;;;;12.80;1.80;;;;;;;7.32;100.00;101554.34;5116309;28;20267;-77
2024/03/16 05:25:55;;;;;;;6.15;0.98;;;;;;;7.21;100.00;101557.09;5116640;28;20020;-77
2024/03/16 05:28:20;;;;;;;10.50;1.23;;;;;;;7.19;100.00;101556.25;5115821;28;20031;-77
2024/03/16 05:30:46;;;;;;;6.22;1.30;;;;;;;7.19;100.00;101566.69;5098072;28;20019;-77
2024/03/16 05:33:11;;;;;;;8.13;1.10;;;;;;;7.18;100.00;101566.69;5116240;28;20039;-77
2024/03/16 05:35:40;;;;;;;6.55;1.00;;;;;;;7.25;100.00;101573.53;5116229;28;20219;-77
2024/03/16 05:38:06;;;;;;;7.93;1.67;;;;;;;7.23;100.00;101577.91;5116411;28;20120;-77
2024/03/16 05:40:31;;;;;;;10.18;1.45;;;;;;;7.24;100.00;101585.72;5116332;28;20644;-77
2024/03/16 05:42:56;;;;;;;9.52;1.42;;;;;;;7.29;100.00;101593.44;5097936;28;20053;-77
2024/03/16 05:45:22;;;;;;;3.85;1.15;;;;;;;7.32;100.00;101603.00;5115437;28;20091;-77
2024/03/16 05:47:47;;;;;;;10.65;1.10;;;;;;;7.33;100.00;101605.56;5116344;28;20023;-77
2024/03/16 05:50:12;;;;;;;3.92;0.80;;;;;;;7.35;100.00;101611.63;5097043;28;20051;-77
2024/03/16 05:52:38;;;;;;;8.82;1.95;;;;;;;7.35;100.00;101614.22;5097553;28;20252;-77
2024/03/16 05:55:04;;;;;;;6.78;1.23;;;;;;;7.40;100.00;101624.56;5115791;28;20055;-77
2024/03/16 05:57:29;;;;;;;7.43;1.33;;;;;;;7.32;100.00;101621.22;5115318;28;20059;-77
2024/03/16 05:59:56;;;;;;;9.40;1.10;;;;;;;7.40;100.00;101627.16;5115766;28;20043;-77
2024/03/16 06:02:22;;;;;;;4.53;1.30;;;;;;;7.47;100.00;101634.88;5115246;28;20092;-77
2024/03/16 06:04:47;;;;;;;7.60;1.35;;;;;;;7.47;100.00;101647.91;5115529;28;20023;-77
2024/03/16 06:07:12;;;;;;;8.45;1.45;;;;;;;7.50;100.00;101652.22;5096705;28;20031;-77
2024/03/16 06:09:38;;;;;;;10.88;1.48;;;;;;;7.50;100.00;101658.28;5116016;28;20403;-77
2024/03/16 06:12:03;;;;;;;3.65;1.30;;;;;;;7.51;100.00;101661.75;5115293;28;20372;-77
2024/03/16 06:14:29;;;;;;;5.00;1.00;;;;;;;7.47;100.00;101671.34;5115138;28;20137;-77
2024/03/16 06:16:54;;;;;;;6.47;1.20;;;;;;;7.37;100.00;101677.59;5115449;28;20361;-77
2024/03/16 06:19:19;;;;;;;5.25;1.17;;;;;;;7.40;100.00;101692.31;5096410;28;20027;-77
2024/03/16 06:21:45;;;;;;;10.38;1.25;;;;;;;7.36;100.00;101688.03;5115464;28;20080;-77
2024/03/16 06:24:11;;;;;;;9.93;1.27;;;;;;;7.36;100.00;101691.50;5115614;28;20356;-77
2024/03/16 06:26:38;;;;;;;7.57;0.90;;;;;;;7.34;100.00;101700.22;5097043;28;20288;-77
2024/03/16 06:29:08;;;;;;;3.70;0.88;;;;;;;7.33;100.00;101699.38;5096908;28;20098;-77
2024/03/16 06:31:38;;;;;;;5.63;1.05;;;;;;;7.27;100.00;101712.47;5114996;28;20039;-77
2024/03/16 06:34:06;;;;;;;6.43;1.23;;;;;;;7.21;100.00;101704.75;5115662;28;20035;-77
2024/03/16 06:36:36;;;;;;;6.53;1.40;;;;;;;7.28;100.00;101706.41;5115741;28;20315;-77
2024/03/16 06:39:10;;;;;;;7.03;1.30;;;;;;;7.35;100.00;101721.06;5114431;28;20070;-77
2024/03/16 06:41:35;;;;;;;8.05;1.00;;;;;;;7.30;100.00;101736.75;5115226;28;20031;-77
2024/03/16 06:44:02;;;;;;;2.80;0.93;;;;;;;7.28;100.00;101738.50;5115375;28;20470;-77
2024/03/16 06:46:27;;;;;;;6.53;1.10;;;;;;;7.34;100.00;101752.34;5115150;28;20078;-77
2024/03/16 06:48:53;;;;;;;6.75;1.23;;;;;;;7.32;100.00;101761.94;5115433;28;20038;-77
2024/03/16 06:51:18;;;;;;;4.07;1.02;;;;;;;7.30;100.00;101774.97;5114708;28;20066;-77
2024/03/16 06:53:47;;;;;;;4.75;1.35;;;;;;;7.32;100.00;101769.75;5115620;28;20031;-77
2024/03/16 06:56:13;;;;;;;4.70;1.70;;;;;;;7.20;100.00;101779.41;5114745;28;20046;-77
2024/03/16 06:58:39;;;;;;;3.60;0.60;;;;;;;7.24;100.00;101778.53;5115071;28;20283;-77
2024/03/16 07:01:04;;;;;;;7.30;1.10;;;;;;;7.28;100.00;101782.81;5113826;28;20039;-77
2024/03/16 07:03:29;;;;;;;3.35;1.08;;;;;;;7.24;100.00;101785.44;5114402;28;20035;-77
2024/03/16 07:05:55;;;;;;;8.48;1.77;;;;;;;7.21;100.00;101795.94;5114869;28;20369;-77
2024/03/16 07:08:20;;;;;;;8.98;1.42;;;;;;;7.16;100.00;101792.50;5095825;28;20031;-77
2024/03/16 07:10:46;;;;;;;3.75;1.35;;;;;;;7.23;100.00;101799.38;5114846;28;20050;-77
2024/03/16 07:13:11;;;;;;;3.75;0.88;;;;;;;7.27;100.00;101808.88;5115019;28;20249;-77
2024/03/16 07:15:36;;;;;;;2.20;0.75;;;;;;;7.28;100.00;101811.47;5115297;28;20353;-77
2024/03/16 07:18:03;;;;;;;6.30;0.90;;;;;;;7.30;100.00;101819.28;5114824;28;20030;-77
2024/03/16 07:20:30;;;;;;;2.28;0.68;;;;;;;7.31;100.00;101823.59;5114580;28;20386;-77
2024/03/16 07:22:55;;;;;;;6.43;1.17;;;;;;;7.23;100.00;101828.91;5114956;28;20036;-77
2024/03/16 07:25:21;;;;;;;8.43;1.27;;;;;;;7.23;100.00;101828.91;5114227;28;20088;-77
2024/03/16 07:27:46;;;;;;;2.33;1.05;;;;;;;7.16;100.00;101829.84;5114772;28;20538;-77
2024/03/16 07:30:12;;;;;;;3.22;0.80;;;;;;;7.18;100.00;101835.03;5114156;28;20051;-77
2024/03/16 07:32:38;;;;;;;5.28;0.82;;;;;;;7.22;100.00;101839.31;5114816;28;20031;-77
2024/03/16 07:35:06;;;;;;;5.88;1.02;;;;;;;7.31;100.00;101852.25;5096349;28;20038;-77
2024/03/16 07:37:32;;;;;;;4.28;0.77;;;;;;;7.33;100.00;101857.47;5114705;28;20401;-77
2024/03/16 07:39:57;;;;;;;7.38;1.42;;;;;;;7.35;100.00;101863.50;5114575;28;20219;-77
2024/03/16 07:42:23;;;;;;;8.40;0.90;;;;;;;7.38;100.00;101864.34;5096197;28;20226;-77
2024/03/16 07:44:48;;;;;;;11.88;1.13;;;;;;;7.42;100.00;101871.25;5114475;28;20042;-77
2024/03/16 07:47:15;;;;;;;4.35;0.98;;;;;;;7.41;100.00;101877.34;5114169;28;20030;-77
2024/03/16 07:49:40;;;;;;;5.78;1.35;;;;;;;7.39;100.00;101879.09;5116011;28;20076;-77
2024/03/16 07:52:06;;;;;;;3.97;0.90;;;;;;;7.42;100.00;101873.00;5118636;28;20318;-77
2024/03/16 07:54:31;;;;;;;8.80;1.75;;;;;;;7.38;100.00;101879.13;5118204;28;20042;-77
2024/03/16 07:56:58;;;;;;;6.25;1.10;;;;;;;7.37;100.00;101886.09;5118582;28;20044;-77
2024/03/16 07:59:24;;;;;;;7.00;0.80;;;;;;;7.43;100.00;101891.22;5118176;28;20043;-77
2024/03/16 08:01:49;;;;;;;10.60;1.35;;;;;;;7.38;100.00;101889.53;5113722;28;20357;-77
2024/03/16 08:04:14;;;;;;;7.53;0.88;;;;;;;7.38;100.00;101889.53;5117693;28;20215;-77
2024/03/16 08:06:40;;;;;;;5.32;0.90;;;;;;;7.40;100.00;101887.78;5118601;28;20261;-76
2024/03/16 08:09:08;;;;;;;6.13;0.70;;;;;;;7.47;100.00;101892.91;5118322;28;20060;-76
2024/03/16 08:11:33;;;;;;;6.53;0.98;;;;;;;7.52;100.00;101908.50;5099790;28;20333;-77
2024/03/16 08:13:59;;;;;;;4.90;1.00;;;;;;;7.59;100.00;101909.31;5117999;28;20035;-77
2024/03/16 08:16:25;;;;;;;6.22;0.75;;;;;;;7.62;100.00;101904.03;5117748;28;20091;-76
2024/03/16 08:18:50;;;;;;;2.78;0.70;;;;;;;7.68;100.00;101906.59;5118290;28;20062;-77
2024/03/16 08:21:16;;;;;;;3.65;1.15;;;;;;;7.65;100.00;101912.69;5098298;28;20733;-77
2024/03/16 08:23:43;;;;;;;2.13;0.63;;;;;;;7.69;100.00;101911.81;5105951;28;20103;-77
2024/03/16 08:26:09;;;;;;;2.63;0.60;;;;;;;7.77;100.00;101919.53;5108736;28;20036;-77
2024/03/16 08:28:34;;;;;;;3.38;0.70;;;;;;;7.80;100.00;101924.69;5106056;28;20237;-77
2024/03/16 08:31:00;;;;;;;7.25;0.93;;;;;;;7.82;100.00;101924.69;5105097;28;20083;-76
2024/03/16 08:33:26;;;;;;;3.90;0.75;;;;;;;7.82;100.00;101928.16;5096623;28;20050;-77
2024/03/16 08:35:51;;;;;;;3.67;1.00;;;;;;;7.87;100.00;101928.09;5096935;28;20032;-77
2024/03/16 08:38:16;;;;;;;2.20;0.90;;;;;;;7.91;100.00;101937.59;5103823;28;20027;-77
2024/03/16 08:40:41;;;;;;;3.90;1.05;;;;;;;7.84;100.00;101936.84;5102176;28;20039;-77
2024/03/16 08:43:07;;;;;;;6.57;0.77;;;;;;;7.83;100.00;101948.13;5100784;28;20031;-77
2024/03/16 08:45:35;;;;;;;2.15;0.80;;;;;;;7.82;100.00;101953.38;5110985;28;20035;-77
2024/03/16 08:48:01;;;;;;;13.20;1.25;;;;;;;7.82;99.77;101950.75;5106994;28;20038;-77
2024/03/16 08:50:27;;;;;;;6.32;1.10;;;;;;;7.78;100.00;101954.28;5111427;28;20043;-77
2024/03/16 08:52:52;;;;;;;5.72;0.98;;;;;;;7.79;100.00;101967.31;5112297;28;20031;-77
2024/03/16 08:55:19;;;;;;;6.40;1.20;;;;;;;7.80;99.24;101966.41;5107749;28;20349;-77
2024/03/16 08:57:45;;;;;;;7.15;1.00;;;;;;;7.79;98.01;101969.91;5107373;28;20058;-77
2024/03/16 09:00:16;;;;;;;8.10;1.55;;;;;;;7.81;96.78;101975.97;5110930;28;20223;-77
2024/03/16 09:02:42;;;;;;;2.65;0.70;;;;;;;7.88;96.95;101982.84;5110076;28;20039;-77
2024/03/16 09:05:10;;;;;;;3.78;0.85;;;;;;;7.86;94.19;101997.66;5108139;28;20389;-77
2024/03/16 09:07:38;;;;;;;2.95;0.60;;;;;;;7.92;93.55;101995.88;5110910;28;20067;-77
2024/03/16 09:10:06;;;;;;;2.20;0.63;;;;;;;7.92;92.95;102003.69;5090559;28;20215;-77
2024/03/16 09:12:32;;;;;;;1.95;0.50;;;;;;;7.90;91.84;102008.94;5109802;28;20046;-77
2024/03/16 09:14:57;;;;;;;2.90;0.98;;;;;;;7.97;93.00;102017.56;5110977;28;20238;-77
2024/03/16 09:17:23;;;;;;;3.03;0.57;;;;;;;8.03;93.41;102030.53;5108673;28;20239;-77
2024/03/16 09:19:48;;;;;;;5.25;0.57;;;;;;;8.03;91.12;102018.34;5111154;28;20288;-77
2024/03/16 09:22:14;;;;;;;2.20;0.55;;;;;;;8.05;89.17;102032.22;5111055;28;20035;-76
2024/03/16 09:24:41;;;;;;;3.30;0.75;;;;;;;8.02;86.27;102032.28;5111730;28;20095;-77
2024/03/16 09:27:07;;;;;;;6.55;0.70;;;;;;;8.03;84.71;102036.59;5110853;28;20040;-76
2024/03/16 09:29:32;;;;;;;2.35;0.60;;;;;;;8.06;86.57;102033.13;5111448;28;20407;-77
2024/03/16 09:31:59;;;;;;;3.92;1.30;;;;;;;8.12;86.86;102040.84;5111390;28;20363;-77
2024/03/16 09:34:24;;;;;;;2.17;0.82;;;;;;;8.15;85.37;102046.06;5111091;28;20046;-77
2024/03/16 09:36:50;;;;;;;1.48;0.63;;;;;;;8.16;85.93;102054.75;5111240;28;20027;-77
2024/03/16 09:39:15;;;;;;;3.97;0.60;;;;;;;8.16;86.16;102055.59;5110857;28;20093;-77
2024/03/16 09:41:41;;;;;;;3.25;0.77;;;;;;;8.17;86.00;102056.47;5110780;28;20031;-77
2024/03/16 09:44:12;;;;;;;3.65;0.70;;;;;;;8.12;84.86;102063.50;5111236;28;20039;-77
2024/03/16 09:46:42;;;;;;;3.50;0.77;;;;;;;8.12;85.37;102066.94;5111137;28;20891;-77
2024/03/16 09:49:10;;;;;;;3.08;0.55;;;;;;;8.09;85.18;102069.59;5110799;28;20242;-77
2024/03/16 09:51:37;;;;;;;2.20;0.90;;;;;;;8.12;86.46;102066.94;5110595;28;20051;-77
2024/03/16 09:54:08;;;;;;;1.92;0.57;;;;;;;8.13;86.88;102080.84;5110904;28;20271;-77
2024/03/16 09:56:34;;;;;;;2.25;0.63;;;;;;;8.11;87.13;102086.09;5110363;28;20046;-77
2024/03/16 09:59:00;;;;;;;2.80;0.75;;;;;;;8.14;87.38;102086.06;5109513;28;20053;-77
2024/03/16 10:01:26;;;;;;;3.72;0.50;;;;;;;8.15;88.58;102103.47;5108437;28;20099;-77
2024/03/16 10:03:52;;;;;;;4.95;0.63;;;;;;;8.17;89.45;102106.91;5108362;28;20080;-77
2024/03/16 10:06:19;;;;;;;3.92;0.70;;;;;;;8.22;89.71;102096.41;5110599;28;20031;-77
2024/03/16 10:08:44;;;;;;;4.25;0.70;;;;;;;8.18;92.07;102099.94;5110845;28;20019;-77
2024/03/16 10:11:10;;;;;;;8.63;1.05;;;;;;;8.23;93.30;102104.22;5110800;28;20032;-77
2024/03/16 10:13:39;;;;;;;5.22;1.00;;;;;;;8.25;91.84;102099.84;5110519;28;20364;-77
2024/03/16 10:16:10;;;;;;;7.22;1.02;;;;;;;8.28;91.76;102122.47;5111034;28;20382;-77
2024/03/16 10:18:36;;;;;;;2.47;0.70;;;;;;;8.25;91.72;102122.47;5108066;28;20062;-77
2024/03/16 10:21:02;;;;;;;9.27;1.00;;;;;;;8.23;90.44;102119.88;5109920;28;20027;-77
2024/03/16 10:23:29;;;;;;;3.78;0.90;;;;;;;8.24;88.11;102124.25;5110458;28;20035;-77
2024/03/16 10:25:56;;;;;;;7.60;0.93;;;;;;;8.22;87.68;102130.34;5082333;28;20031;-77
2024/03/16 10:28:21;;;;;;;5.28;0.88;;;;;;;8.23;88.37;102143.38;5109598;28;20031;-77
2024/03/16 10:30:47;;;;;;;2.15;0.60;;;;;;;8.26;88.08;102145.09;5110387;28;20030;-77
2024/03/16 10:33:13;;;;;;;5.05;0.93;;;;;;;8.24;85.98;102154.66;5109388;28;20058;-77
2024/03/16 10:35:40;;;;;;;2.67;0.70;;;;;;;8.25;86.68;102149.44;5110362;28;20280;-77
2024/03/16 10:38:12;;;;;;;4.53;0.73;;;;;;;8.30;87.34;102154.63;5091261;28;20196;-77
2024/03/16 10:40:39;;;;;;;3.38;0.80;;;;;;;8.31;88.33;102155.50;5109818;28;20031;-77
2024/03/16 10:43:04;;;;;;;6.03;0.60;;;;;;;8.34;88.82;102155.47;5107242;28;20322;-77
2024/03/16 10:45:32;;;;;;;5.63;1.00;;;;;;;8.37;88.63;102164.13;5091857;28;20367;-77
2024/03/16 10:48:01;;;;;;;8.98;0.93;;;;;;;8.31;86.42;102161.56;5110091;28;20275;-77
2024/03/16 10:50:29;;;;;;;4.53;0.80;;;;;;;8.27;85.65;102163.34;5109828;28;20296;-76
2024/03/16 10:52:56;;;;;;;6.13;0.70;;;;;;;8.28;86.24;102159.00;5110246;28;20260;-77
2024/03/16 10:55:24;;;;;;;2.75;0.68;;;;;;;8.36;86.56;102165.00;5105910;28;20329;-77
2024/03/16 10:57:51;;;;;;;5.55;0.73;;;;;;;8.38;85.57;102158.00;5090607;28;20089;-77
2024/03/16 11:00:20;;;;;;;5.38;0.75;;;;;;;8.47;85.53;102159.69;5110404;28;20037;-77
2024/03/16 11:03:12;;;;;;;5.68;1.15;;;;;;;8.50;85.77;102159.66;5110328;28;20023;-77
2024/03/16 11:05:40;;;;;;;4.22;0.90;;;;;;;8.53;84.08;102161.38;5109911;28;20037;-77
2024/03/16 11:08:14;;;;;;;8.73;1.13;;;;;;;8.55;84.52;102165.72;5110482;28;20027;-77
2024/03/16 11:10:40;;;;;;;4.75;0.82;;;;;;;8.51;85.29;102174.44;5110015;28;20031;-77
2024/03/16 11:13:16;;;;;;;4.95;0.95;;;;;;;8.42;87.62;102174.53;5109944;28;20068;-77
2024/03/16 11:15:48;;;;;;;9.90;1.50;;;;;;;8.47;89.04;102190.16;5109921;28;20039;-77
2024/03/16 11:18:20;;;;;;;4.00;1.00;;;;;;;8.42;89.47;102188.47;5109603;28;20376;-76
2024/03/16 11:20:55;;;;;;;4.70;1.45;;;;;;;8.43;90.06;102187.59;5110360;28;20107;-77
2024/03/16 11:23:25;;;;;;;6.78;1.30;;;;;;;8.48;91.23;102186.66;5109784;28;20066;-77